logo meteosicilia

Diretta Meteo Goteborg-Landvetter, Sveziasabato 15 giugno ore 18:50

Mappa
Sereno 12 °C Pioggia 24 Ore: T.min 9 T.max 17
Ponente Sud-Est Km/h 20.3 Punto di rugiada: 11 °C Umidità: 93% Visibilità: 7 Km
Il sole sorge alle: 04:07 Il sole tramonta alle: 22:15
15 Giugno 2024 18:50 tempo osservato: Pioggia Pioggia 12 93 1000 vento: Nord SE 20.3
15 Giugno 2024 18:20 tempo osservato: Pioggia Pioggia 12 93 1000 vento: Nord E 25.9
15 Giugno 2024 17:50 tempo osservato: Pioggia Pioggia 12 93 1001 vento: Nord E/SE 18.5
15 Giugno 2024 17:20 tempo osservato: Pioviggine Pioviggine 13 87 1001 vento: Nord E 22.2
15 Giugno 2024 16:50 tempo osservato: Pioggia Pioggia 14 82 1001 vento: Nord E/SE 22.2
15 Giugno 2024 16:20 tempo osservato: Pioggia Pioggia 13 87 1002 vento: Nord E 16.7
15 Giugno 2024 15:50 tempo osservato: Pioggia Pioggia 13 87 1002 vento: Nord E 18.5
15 Giugno 2024 15:20 tempo osservato: Pioviggine Pioviggine 14 76 1002 vento: Nord E/SE 22.2
15 Giugno 2024 14:50 tempo osservato: Pioviggine Pioviggine 16 63 1003 vento: Nord E/SE 20.3
15 Giugno 2024 14:20 tempo osservato: Pioviggine Pioviggine 16 63 1003 vento: Nord E/SE 27.8
15 Giugno 2024 13:50 tempo osservato: Molto Nuvoloso Molto Nuvoloso 17 55 1003 vento: Nord E/SE 22.2
15 Giugno 2024 13:20 tempo osservato: Sereno Sereno 17 55 1003 vento: Nord E/SE 31.5
15 Giugno 2024 12:50 tempo osservato: Sereno Sereno 16 58 1004 vento: Nord E 25.9
15 Giugno 2024 12:20 tempo osservato: Sereno Sereno 16 58 1004 vento: Nord E 29.6
15 Giugno 2024 11:50 tempo osservato: Sereno Sereno 15 62 1005 vento: Nord E 29.6
15 Giugno 2024 11:20 tempo osservato: Sereno Sereno 15 62 1005 vento: Nord E 22.2
15 Giugno 2024 10:50 tempo osservato: Poco Nuvoloso Poco Nuvoloso 14 67 1006 vento: Nord E/SE 25.9
15 Giugno 2024 10:20 tempo osservato: Coperto Coperto 14 62 1006 vento: Nord E 22.2
15 Giugno 2024 09:50 tempo osservato: Sereno Sereno 14 62 1007 vento: Nord E/SE 24
15 Giugno 2024 09:20 tempo osservato: Sereno Sereno 14 62 1007 vento: Nord E/SE 22.2
15 Giugno 2024 08:50 tempo osservato: Sereno Sereno 14 67 1007 vento: Nord E/SE 20.3
15 Giugno 2024 08:20 tempo osservato: Sereno Sereno 13 66 1007 vento: Nord E/SE 20.3
15 Giugno 2024 07:50 tempo osservato: Sereno Sereno 13 66 1007 vento: Nord E/SE 18.5
15 Giugno 2024 07:20 tempo osservato: Sereno Sereno 12 71 1007 vento: Nord E/SE 16.7
15 Giugno 2024 06:50 tempo osservato: Sereno Sereno 11 76 1007 vento: Nord E/SE 18.5
15 Giugno 2024 06:20 tempo osservato: Sereno Sereno 10 81 1008 vento: Nord E/SE 18.5
15 Giugno 2024 05:50 tempo osservato: Sereno Sereno 9 81 1008 vento: Nord E/SE 16.7
15 Giugno 2024 05:20 tempo osservato: Sereno Sereno 9 87 1008 vento: Nord E/SE 16.7
15 Giugno 2024 04:50 tempo osservato: Sereno Sereno 9 81 1008 vento: Nord E/SE 18.5
15 Giugno 2024 04:20 tempo osservato: Sereno Sereno 9 81 1009 vento: Nord E/SE 18.5
15 Giugno 2024 03:50 tempo osservato: Sereno Sereno 9 81 1009 vento: Nord E/SE 18.5
15 Giugno 2024 03:20 tempo osservato: Sereno Sereno 9 81 1009 vento: Nord E/SE 16.7
15 Giugno 2024 02:50 tempo osservato: Sereno Sereno 10 76 1009 vento: Nord E/SE 16.7
15 Giugno 2024 02:20 tempo osservato: Sereno Sereno 10 81 1009 vento: Nord E/SE 16.7
15 Giugno 2024 01:50 tempo osservato: Sereno Sereno 10 81 1010 vento: Nord E/SE 16.7
15 Giugno 2024 01:20 tempo osservato: Sereno Sereno 11 76 1010 vento: Nord SE 14.8
15 Giugno 2024 00:20 tempo osservato: Sereno Sereno 11 81 1010 vento: Nord E/SE 14.8
14 Giugno 2024 23:50 tempo osservato: Sereno Sereno 11 81 1011 vento: Nord SE 13
14 Giugno 2024 23:20 tempo osservato: Sereno Sereno 12 76 1011 vento: Nord E/SE 11.1
14 Giugno 2024 22:50 tempo osservato: Sereno Sereno 12 76 1011 vento: Nord E/SE 13
14 Giugno 2024 22:20 tempo osservato: Sereno Sereno 12 76 1011 vento: Nord E/SE 13
14 Giugno 2024 21:50 tempo osservato: Sereno Sereno 13 76 1011 vento: Nord E/SE 11.1
14 Giugno 2024 21:20 tempo osservato: Sereno Sereno 14 71 1011 vento: Nord E/SE 11.1
14 Giugno 2024 20:50 tempo osservato: Sereno Sereno 14 71 1011 vento: Nord E/SE 11.1
14 Giugno 2024 20:20 tempo osservato: Sereno Sereno 15 67 1011 vento: Nord E/SE 13
14 Giugno 2024 19:50 tempo osservato: Sereno Sereno 15 67 1011 vento: Nord SE 14.8